Time;durP1;ratioP1;P1;durP2;ratioP2;P2;SDS_P1;SDS_P2;PMS_P1;PMS_P2;Temp;Humidity;BMP_temperature;BMP_pressure;BME280_temperature;BME280_humidity;BME280_pressure;Samples;Min_cycle;Max_cycle;Signal;HPM_P1;HPM_P2
2021/10/14 00:00:18;;;;;;;5.90;1.98;;;11.30;58.00;;;;;;5033891;28;20093;-74
2021/10/14 00:02:44;;;;;;;2.42;1.80;;;11.30;58.60;;;;;;5033962;28;20037;-75
2021/10/14 00:05:09;;;;;;;2.97;1.55;;;11.30;58.00;;;;;;5033953;28;20100;-72
2021/10/14 00:07:35;;;;;;;3.42;1.52;;;11.20;58.00;;;;;;5034011;28;20044;-73
2021/10/14 00:10:01;;;;;;;4.38;1.50;;;11.20;57.80;;;;;;5033992;28;20105;-70
2021/10/14 00:12:26;;;;;;;3.53;1.60;;;11.20;57.40;;;;;;5033741;28;20451;-72
2021/10/14 00:14:52;;;;;;;3.03;1.20;;;11.30;57.10;;;;;;5033842;28;20029;-71
2021/10/14 00:17:18;;;;;;;4.45;1.35;;;11.30;56.70;;;;;;5033754;28;20038;-72
2021/10/14 00:19:44;;;;;;;2.00;1.05;;;11.40;56.50;;;;;;5033400;28;20064;-70
2021/10/14 00:22:10;;;;;;;2.70;1.20;;;11.40;56.40;;;;;;5033082;28;20061;-72
2021/10/14 00:24:36;;;;;;;3.47;1.42;;;11.40;56.20;;;;;;5032804;28;20532;-73
2021/10/14 00:27:01;;;;;;;2.00;1.25;;;11.40;55.90;;;;;;5033322;28;20053;-74
2021/10/14 00:29:27;;;;;;;1.27;0.90;;;11.50;55.80;;;;;;5033380;28;20497;-74
2021/10/14 00:31:53;;;;;;;2.05;1.23;;;11.50;56.10;;;;;;5033427;28;20033;-74
2021/10/14 00:34:18;;;;;;;1.98;1.27;;;11.50;56.20;;;;;;5033622;28;20045;-73
2021/10/14 00:36:44;;;;;;;1.98;1.20;;;11.50;56.60;;;;;;5033518;28;20021;-72
2021/10/14 00:39:10;;;;;;;1.95;1.08;;;11.50;56.10;;;;;;5032583;28;20025;-68
2021/10/14 00:41:35;;;;;;;3.55;1.33;;;11.50;56.40;;;;;;5033546;28;20029;-73
2021/10/14 00:44:01;;;;;;;1.58;1.10;;;11.50;56.90;;;;;;5031309;28;20029;-74
2021/10/14 00:46:27;;;;;;;3.25;1.50;;;11.50;56.80;;;;;;5031343;28;20101;-75
2021/10/14 00:48:52;;;;;;;2.75;1.40;;;11.40;56.90;;;;;;5031651;28;20041;-75
2021/10/14 00:51:18;;;;;;;3.90;1.23;;;11.40;56.40;;;;;;5031531;28;20033;-75
2021/10/14 00:53:46;;;;;;;1.77;1.20;;;11.40;56.50;;;;;;5032714;28;20080;-75
2021/10/14 00:56:13;;;;;;;2.25;1.17;;;11.40;56.60;;;;;;5032900;28;20057;-72
2021/10/14 00:58:40;;;;;;;2.72;1.00;;;11.40;56.70;;;;;;5030741;28;20031;-71
2021/10/14 01:01:06;;;;;;;2.70;1.50;;;11.30;57.30;;;;;;5029949;28;20120;-73
2021/10/14 01:03:32;;;;;;;3.47;1.52;;;11.30;57.20;;;;;;5029951;28;20459;-74
2021/10/14 01:05:58;;;;;;;1.77;1.35;;;11.30;56.90;;;;;;5032705;28;20370;-74
2021/10/14 01:08:25;;;;;;;2.53;1.25;;;11.30;56.90;;;;;;5030838;28;20029;-75
2021/10/14 01:10:51;;;;;;;2.25;1.35;;;11.30;57.30;;;;;;5031542;28;20123;-74
2021/10/14 01:13:18;;;;;;;2.10;1.23;;;11.20;57.30;;;;;;5031319;28;20069;-73
2021/10/14 01:15:47;;;;;;;2.88;1.60;;;11.20;57.20;;;;;;5032708;28;20025;-73
2021/10/14 01:18:13;;;;;;;3.92;1.80;;;11.20;57.40;;;;;;5032967;28;20033;-73
2021/10/14 01:20:39;;;;;;;2.60;1.38;;;11.20;58.00;;;;;;5032036;28;20078;-73
2021/10/14 01:23:06;;;;;;;3.60;1.50;;;11.10;58.60;;;;;;5032400;28;20037;-74
2021/10/14 01:25:32;;;;;;;2.33;1.33;;;11.10;58.40;;;;;;5032353;28;20025;-74
2021/10/14 01:27:58;;;;;;;2.20;1.30;;;11.10;57.90;;;;;;5032328;28;20025;-74
2021/10/14 01:30:24;;;;;;;2.85;1.55;;;11.10;57.70;;;;;;5032813;28;20100;-75
2021/10/14 01:32:49;;;;;;;2.83;1.30;;;11.00;57.60;;;;;;5032822;28;20121;-74
2021/10/14 01:35:17;;;;;;;2.50;1.35;;;11.00;58.20;;;;;;5032324;28;20029;-74
2021/10/14 01:37:43;;;;;;;2.90;1.30;;;10.90;58.40;;;;;;5032455;28;20026;-74
2021/10/14 01:40:09;;;;;;;2.40;1.50;;;10.90;58.40;;;;;;5032571;28;20140;-74
2021/10/14 01:42:35;;;;;;;3.78;1.42;;;10.90;58.20;;;;;;5032247;28;20112;-75
2021/10/14 01:45:02;;;;;;;1.88;1.30;;;10.80;58.30;;;;;;5032416;28;20116;-75
2021/10/14 01:47:30;;;;;;;3.58;1.60;;;10.90;58.60;;;;;;5032568;28;20029;-74
2021/10/14 01:49:56;;;;;;;2.30;1.40;;;10.90;58.50;;;;;;5032266;28;20030;-74
2021/10/14 01:52:21;;;;;;;2.63;1.42;;;10.90;58.90;;;;;;5035844;28;20091;-73
2021/10/14 01:54:47;;;;;;;2.67;1.40;;;10.80;58.60;;;;;;5036664;28;20403;-74
2021/10/14 01:57:12;;;;;;;2.55;1.48;;;10.80;58.60;;;;;;5036281;28;20032;-74
2021/10/14 01:59:38;;;;;;;8.05;1.55;;;10.80;59.60;;;;;;5036263;28;20028;-74
2021/10/14 02:02:04;;;;;;;2.85;1.40;;;10.80;59.00;;;;;;5036355;28;20025;-74
2021/10/14 02:04:30;;;;;;;2.13;1.33;;;10.80;59.50;;;;;;5036613;28;20083;-74
2021/10/14 02:06:55;;;;;;;1.58;1.10;;;10.80;59.10;;;;;;5036375;28;20032;-74
2021/10/14 02:09:21;;;;;;;1.80;1.20;;;10.70;59.10;;;;;;5036166;28;20037;-74
2021/10/14 02:11:46;;;;;;;2.25;1.33;;;10.70;59.30;;;;;;5036232;28;20029;-74
2021/10/14 02:14:12;;;;;;;2.85;1.38;;;10.70;59.00;;;;;;5036036;28;20532;-74
2021/10/14 02:16:38;;;;;;;5.70;1.50;;;10.60;59.30;;;;;;5035982;28;20147;-74
2021/10/14 02:19:03;;;;;;;2.43;1.30;;;10.60;59.40;;;;;;5036084;28;20025;-74
2021/10/14 02:21:29;;;;;;;3.70;1.33;;;10.50;58.90;;;;;;5036113;28;20048;-74
2021/10/14 02:23:55;;;;;;;4.90;1.38;;;10.50;59.00;;;;;;5036086;28;20449;-74
2021/10/14 02:26:20;;;;;;;2.90;1.10;;;10.50;58.70;;;;;;5035796;28;20023;-73
2021/10/14 02:28:46;;;;;;;2.10;1.30;;;10.40;58.90;;;;;;5035884;28;20462;-74
2021/10/14 02:31:12;;;;;;;1.38;1.02;;;10.40;58.80;;;;;;5036264;28;20021;-73
2021/10/14 02:33:37;;;;;;;3.70;1.25;;;10.40;59.20;;;;;;5035634;28;20069;-74
2021/10/14 02:36:03;;;;;;;3.65;1.30;;;10.40;59.00;;;;;;5035851;28;20044;-74
2021/10/14 02:38:29;;;;;;;3.00;1.35;;;10.40;58.70;;;;;;5035786;28;20645;-74
2021/10/14 02:40:55;;;;;;;3.37;1.27;;;10.40;58.80;;;;;;5035480;28;20429;-75
2021/10/14 02:43:20;;;;;;;4.22;1.45;;;10.30;58.80;;;;;;5035472;28;20026;-75
2021/10/14 02:45:46;;;;;;;2.10;1.00;;;10.30;58.60;;;;;;5034520;28;20143;-71
2021/10/14 02:48:11;;;;;;;1.60;1.03;;;10.30;58.60;;;;;;5035331;28;20390;-73
2021/10/14 02:50:37;;;;;;;1.80;1.13;;;10.30;58.50;;;;;;5035112;28;20102;-73
2021/10/14 02:53:03;;;;;;;1.73;0.97;;;10.30;58.60;;;;;;5035556;28;20038;-72
2021/10/14 02:55:28;;;;;;;2.73;0.90;;;10.30;59.40;;;;;;5035458;28;20025;-71
2021/10/14 02:57:54;;;;;;;2.63;1.00;;;10.30;58.60;;;;;;5035359;28;20462;-74
2021/10/14 03:00:20;;;;;;;2.27;1.10;;;10.20;58.50;;;;;;5035362;28;20510;-75
2021/10/14 03:02:45;;;;;;;2.57;1.27;;;10.20;58.40;;;;;;5034488;28;20036;-75
2021/10/14 03:05:11;;;;;;;3.43;1.10;;;10.30;58.30;;;;;;5035422;28;20497;-74
2021/10/14 03:07:37;;;;;;;3.13;1.33;;;10.20;58.40;;;;;;5035162;28;20036;-74
2021/10/14 03:10:03;;;;;;;3.70;1.40;;;10.20;58.60;;;;;;5035192;28;20060;-72
2021/10/14 03:12:28;;;;;;;4.23;1.47;;;10.20;58.70;;;;;;5035387;28;20034;-73
2021/10/14 03:14:54;;;;;;;2.78;1.40;;;10.20;58.90;;;;;;5035032;28;20029;-73
2021/10/14 03:17:20;;;;;;;2.53;1.47;;;10.30;58.80;;;;;;5034794;28;20159;-74
2021/10/14 03:19:45;;;;;;;3.17;1.40;;;10.30;58.80;;;;;;5034832;28;20030;-74
2021/10/14 03:22:11;;;;;;;7.07;1.50;;;10.30;58.70;;;;;;5034890;28;20466;-73
2021/10/14 03:24:37;;;;;;;2.20;1.40;;;10.30;58.90;;;;;;5034601;28;20056;-74
2021/10/14 03:27:03;;;;;;;2.87;1.63;;;10.20;58.90;;;;;;5034753;28;20018;-74
2021/10/14 03:29:28;;;;;;;5.90;1.60;;;10.20;59.00;;;;;;5034508;28;20112;-73
2021/10/14 03:31:54;;;;;;;3.70;1.37;;;10.20;59.00;;;;;;5034763;28;20033;-73
2021/10/14 03:34:20;;;;;;;3.73;1.80;;;10.20;59.20;;;;;;5034550;28;20044;-74
2021/10/14 03:36:45;;;;;;;2.80;1.70;;;10.20;59.30;;;;;;5034738;28;20028;-71
2021/10/14 03:39:11;;;;;;;3.20;1.47;;;10.20;59.80;;;;;;5034505;28;20025;-73
2021/10/14 03:41:37;;;;;;;3.90;1.77;;;10.20;59.30;;;;;;5034570;28;20021;-73
2021/10/14 03:44:03;;;;;;;4.63;1.60;;;10.20;59.00;;;;;;5034491;28;20044;-74
2021/10/14 03:46:28;;;;;;;4.50;1.80;;;10.10;59.50;;;;;;5034669;28;20116;-73
2021/10/14 03:48:54;;;;;;;2.92;1.50;;;10.10;59.40;;;;;;5034121;28;20029;-72
2021/10/14 03:51:19;;;;;;;3.40;1.55;;;10.10;59.30;;;;;;5034323;28;20033;-73
2021/10/14 03:53:45;;;;;;;2.97;1.65;;;10.10;59.50;;;;;;5034396;28;20045;-72
2021/10/14 03:56:11;;;;;;;5.47;1.73;;;10.00;59.70;;;;;;5034556;28;20083;-72
2021/10/14 03:58:36;;;;;;;5.80;1.50;;;10.00;59.50;;;;;;5034448;28;20029;-73
2021/10/14 04:01:02;;;;;;;3.27;1.60;;;10.00;59.50;;;;;;5033838;28;20124;-74
2021/10/14 04:03:28;;;;;;;3.23;1.63;;;10.00;59.60;;;;;;5034077;28;20029;-73
2021/10/14 04:05:53;;;;;;;2.87;1.57;;;10.00;59.50;;;;;;5034269;28;20109;-73
2021/10/14 04:08:19;;;;;;;3.23;1.70;;;10.00;59.50;;;;;;5033889;28;20033;-72
2021/10/14 04:10:45;;;;;;;2.57;1.57;;;10.00;59.60;;;;;;5032779;28;20083;-74
2021/10/14 04:13:10;;;;;;;3.63;1.63;;;10.00;59.80;;;;;;5033574;28;20484;-71
2021/10/14 04:15:36;;;;;;;4.70;2.00;;;10.00;59.90;;;;;;5033858;28;20096;-75
2021/10/14 04:18:02;;;;;;;2.73;1.60;;;10.00;59.80;;;;;;5033498;28;20053;-74
2021/10/14 04:20:27;;;;;;;2.73;1.50;;;9.90;59.60;;;;;;5033753;28;20021;-74
2021/10/14 04:22:54;;;;;;;4.53;1.87;;;10.00;60.10;;;;;;5033695;28;20458;-74
2021/10/14 04:25:20;;;;;;;2.50;1.70;;;9.90;60.10;;;;;;5033596;28;20029;-74
2021/10/14 04:27:45;;;;;;;4.53;1.60;;;9.90;60.00;;;;;;5033843;28;20359;-74
2021/10/14 04:30:11;;;;;;;3.33;1.93;;;9.90;60.00;;;;;;5033271;28;20048;-74
2021/10/14 04:32:37;;;;;;;3.47;1.83;;;9.80;59.80;;;;;;5033388;28;20052;-74
2021/10/14 04:35:04;;;;;;;4.23;2.03;;;9.80;60.00;;;;;;5033469;28;20025;-74
2021/10/14 04:37:30;;;;;;;3.03;1.90;;;9.80;60.20;;;;;;5033668;28;20148;-75
2021/10/14 04:39:56;;;;;;;3.13;1.90;;;9.80;60.10;;;;;;5031512;28;20030;-75
2021/10/14 04:42:21;;;;;;;3.80;1.77;;;9.80;60.20;;;;;;5032743;28;20052;-75
2021/10/14 04:44:47;;;;;;;5.17;1.90;;;9.80;60.20;;;;;;5033056;28;20025;-73
2021/10/14 04:47:18;;;;;;;5.47;1.80;;;9.70;59.80;;;;;;5032014;28;20394;-74
2021/10/14 04:49:45;;;;;;;3.43;1.90;;;9.70;59.70;;;;;;5032441;28;20534;-75
2021/10/14 04:52:11;;;;;;;4.20;2.10;;;9.70;60.30;;;;;;5032229;28;20459;-73
2021/10/14 04:54:37;;;;;;;3.40;1.87;;;9.70;60.10;;;;;;5033102;28;20024;-74
2021/10/14 04:57:02;;;;;;;6.33;2.00;;;9.70;60.40;;;;;;5033199;28;20466;-73
2021/10/14 04:59:28;;;;;;;3.97;1.83;;;9.70;60.50;;;;;;5032853;28;20091;-74
2021/10/14 05:01:54;;;;;;;5.40;1.80;;;9.60;60.40;;;;;;5031443;28;20033;-73
2021/10/14 05:04:19;;;;;;;5.13;2.30;;;9.70;60.50;;;;;;5032388;28;20033;-74
2021/10/14 05:06:45;;;;;;;7.23;2.10;;;9.60;60.70;;;;;;5033012;28;20079;-72
2021/10/14 05:09:11;;;;;;;5.07;2.30;;;9.60;60.70;;;;;;5032575;28;20104;-74
2021/10/14 05:11:36;;;;;;;4.13;2.00;;;9.60;60.60;;;;;;5032585;28;20022;-74
2021/10/14 05:14:02;;;;;;;4.20;1.77;;;9.60;60.90;;;;;;5032733;28;20469;-75
2021/10/14 05:16:32;;;;;;;4.00;2.10;;;9.60;60.70;;;;;;5030800;28;20026;-73
2021/10/14 05:18:58;;;;;;;5.27;2.40;;;9.60;60.90;;;;;;5032883;28;20435;-74
2021/10/14 05:21:24;;;;;;;8.73;2.63;;;9.60;60.90;;;;;;5031546;28;20030;-75
2021/10/14 05:23:50;;;;;;;5.20;2.37;;;9.60;60.80;;;;;;5032705;28;20049;-75
2021/10/14 05:26:15;;;;;;;7.83;2.63;;;9.60;60.70;;;;;;5032344;28;20499;-75
2021/10/14 05:28:41;;;;;;;5.93;2.70;;;9.60;60.70;;;;;;5031425;28;20030;-75
2021/10/14 05:31:07;;;;;;;6.40;2.73;;;9.50;60.80;;;;;;5032405;28;20026;-74
2021/10/14 05:33:33;;;;;;;4.77;2.60;;;9.50;60.70;;;;;;5032593;28;20040;-74
2021/10/14 05:35:59;;;;;;;5.97;2.90;;;9.50;60.90;;;;;;5032414;28;20044;-74
2021/10/14 05:38:25;;;;;;;6.37;2.67;;;9.50;60.80;;;;;;5032686;28;20021;-73
2021/10/14 05:40:51;;;;;;;5.17;2.77;;;9.50;61.00;;;;;;5032353;28;20056;-74
2021/10/14 05:43:16;;;;;;;5.93;2.87;;;9.50;61.00;;;;;;5032757;28;20452;-75
2021/10/14 05:45:42;;;;;;;9.67;3.03;;;9.50;61.10;;;;;;5032725;28;20474;-74
2021/10/14 05:48:08;;;;;;;6.50;3.07;;;9.50;61.30;;;;;;5032527;28;20056;-75
2021/10/14 05:50:34;;;;;;;7.13;3.03;;;9.50;61.10;;;;;;5032347;28;20398;-74
2021/10/14 05:52:59;;;;;;;7.67;3.00;;;9.50;60.80;;;;;;5032151;28;20458;-74
2021/10/14 05:55:25;;;;;;;7.40;3.10;;;9.50;60.70;;;;;;5032250;28;20013;-74
2021/10/14 05:57:51;;;;;;;6.60;3.03;;;9.50;60.70;;;;;;5032432;28;20036;-74
2021/10/14 06:00:17;;;;;;;6.93;2.93;;;9.50;61.00;;;;;;5030110;28;20084;-73
2021/10/14 06:02:43;;;;;;;5.63;2.77;;;9.60;60.80;;;;;;5031723;28;20028;-72
2021/10/14 06:05:09;;;;;;;10.33;2.77;;;9.50;60.50;;;;;;5043466;28;20377;-72
2021/10/14 06:07:35;;;;;;;7.90;2.90;;;9.60;60.20;;;;;;5044694;28;20370;-75
2021/10/14 06:10:00;;;;;;;7.97;2.77;;;9.60;60.30;;;;;;5071907;28;20028;-72
2021/10/14 06:12:26;;;;;;;6.63;2.57;;;9.60;60.30;;;;;;5071802;28;20043;-75
2021/10/14 06:14:52;;;;;;;7.07;3.30;;;9.60;60.10;;;;;;5062106;28;20032;-73
2021/10/14 06:17:17;;;;;;;8.87;2.70;;;9.70;60.20;;;;;;5051361;28;20021;-70
2021/10/14 06:19:43;;;;;;;7.20;2.53;;;9.70;60.20;;;;;;5049574;28;20106;-76
2021/10/14 06:22:08;;;;;;;10.33;3.23;;;9.70;60.00;;;;;;5052133;28;20075;-77
2021/10/14 06:24:34;;;;;;;5.83;2.90;;;9.70;59.90;;;;;;5051842;28;20420;-72
2021/10/14 06:27:00;;;;;;;5.27;2.13;;;9.70;59.80;;;;;;5051780;28;20456;-74
2021/10/14 06:29:25;;;;;;;7.37;2.30;;;9.80;59.80;;;;;;5057019;28;20028;-72
2021/10/14 06:31:51;;;;;;;6.47;2.80;;;9.80;59.80;;;;;;5071756;28;20395;-71
2021/10/14 06:34:17;;;;;;;8.47;2.60;;;9.90;59.90;;;;;;5071602;28;20048;-72
2021/10/14 06:36:42;;;;;;;9.00;2.37;;;9.90;59.90;;;;;;5071339;28;20054;-74
2021/10/14 06:39:09;;;;;;;8.07;2.40;;;10.00;60.30;;;;;;5075319;28;20024;-73
2021/10/14 06:41:34;;;;;;;8.50;2.27;;;10.10;60.40;;;;;;5075109;28;20095;-72
2021/10/14 06:44:00;;;;;;;4.93;2.20;;;10.10;59.80;;;;;;5075285;28;20440;-72
2021/10/14 06:46:26;;;;;;;7.37;2.43;;;10.10;59.80;;;;;;5074492;28;20020;-67
2021/10/14 06:48:51;;;;;;;5.47;2.00;;;10.10;59.50;;;;;;5075282;28;20048;-73
2021/10/14 06:51:17;;;;;;;6.93;1.80;;;10.20;59.50;;;;;;5074455;28;20031;-71
2021/10/14 06:53:42;;;;;;;4.87;1.70;;;10.20;59.00;;;;;;5074479;28;20032;-71
2021/10/14 06:56:08;;;;;;;5.00;2.00;;;10.20;59.20;;;;;;5074905;28;20021;-70
2021/10/14 06:58:34;;;;;;;6.80;1.63;;;10.30;59.10;;;;;;5074317;28;20075;-72
2021/10/14 07:00:59;;;;;;;3.77;1.67;;;10.30;58.90;;;;;;5074663;28;20059;-71
2021/10/14 07:03:25;;;;;;;6.37;2.10;;;10.30;58.70;;;;;;5073616;28;20028;-73
2021/10/14 07:05:51;;;;;;;6.63;2.17;;;10.40;58.60;;;;;;5070896;28;20039;-72
2021/10/14 07:08:17;;;;;;;10.10;2.00;;;10.50;58.70;;;;;;5073581;28;20021;-73
2021/10/14 07:10:46;;;;;;;6.63;1.80;;;10.50;58.70;;;;;;5073829;28;20025;-72
2021/10/14 07:13:13;;;;;;;4.27;1.83;;;10.50;58.60;;;;;;5072957;28;20036;-73
2021/10/14 07:15:39;;;;;;;5.00;1.90;;;10.60;58.30;;;;;;5074353;28;20029;-71
2021/10/14 07:18:06;;;;;;;7.00;1.92;;;10.70;58.60;;;;;;5074128;28;20031;-73
2021/10/14 07:20:32;;;;;;;4.97;1.93;;;10.70;58.10;;;;;;5054679;28;20100;-73
2021/10/14 07:22:58;;;;;;;5.30;2.20;;;10.80;58.00;;;;;;5034716;28;20172;-72
2021/10/14 07:25:23;;;;;;;8.38;2.50;;;10.80;57.80;;;;;;5034567;28;20028;-74
2021/10/14 07:27:49;;;;;;;10.07;2.40;;;10.90;57.80;;;;;;5034221;28;20029;-74
2021/10/14 07:30:14;;;;;;;8.18;2.10;;;10.90;57.90;;;;;;5034608;28;20104;-72
2021/10/14 07:32:40;;;;;;;5.15;1.83;;;11.00;58.20;;;;;;5034279;28;20077;-68
2021/10/14 07:35:07;;;;;;;5.10;1.77;;;11.10;59.20;;;;;;5034469;28;20485;-72
2021/10/14 07:37:32;;;;;;;6.00;1.50;;;11.10;57.90;;;;;;5034059;28;20040;-73
2021/10/14 07:39:58;;;;;;;8.00;2.00;;;11.20;57.40;;;;;;5034306;28;20484;-71
2021/10/14 07:42:24;;;;;;;4.20;1.58;;;11.20;57.00;;;;;;5033676;28;20104;-73
2021/10/14 07:44:50;;;;;;;4.22;1.73;;;11.30;56.90;;;;;;5033784;28;20444;-72
2021/10/14 07:47:16;;;;;;;5.32;1.40;;;11.40;56.70;;;;;;5034193;28;20060;-69
2021/10/14 07:49:42;;;;;;;4.40;1.60;;;11.40;56.20;;;;;;5033686;28;20032;-70
2021/10/14 07:52:08;;;;;;;8.30;1.88;;;11.50;56.00;;;;;;5034124;28;20056;-70
2021/10/14 07:54:33;;;;;;;5.32;1.45;;;11.50;55.80;;;;;;5034429;28;20028;-72
2021/10/14 07:56:59;;;;;;;3.72;1.42;;;11.60;55.10;;;;;;5033439;28;20482;-69
2021/10/14 07:59:25;;;;;;;3.35;1.23;;;11.60;54.40;;;;;;5032573;28;20067;-68
2021/10/14 08:01:50;;;;;;;4.60;1.20;;;11.70;54.00;;;;;;5033800;28;20053;-77
2021/10/14 08:04:16;;;;;;;2.00;1.17;;;11.70;53.90;;;;;;5034137;28;20026;-72
2021/10/14 08:06:42;;;;;;;4.10;1.17;;;11.80;53.40;;;;;;5033631;28;20049;-72
2021/10/14 08:09:07;;;;;;;5.47;1.63;;;12.00;55.40;;;;;;5032711;28;20317;-70
2021/10/14 08:11:33;;;;;;;5.38;1.75;;;11.90;53.90;;;;;;5031628;28;20025;-71
2021/10/14 08:13:59;;;;;;;3.83;1.40;;;12.00;54.10;;;;;;5031217;28;20029;-70
2021/10/14 08:16:26;;;;;;;3.20;1.52;;;12.10;53.60;;;;;;5032866;28;20017;-72
2021/10/14 08:18:51;;;;;;;4.85;1.42;;;12.10;53.60;;;;;;5032229;28;20505;-73
2021/10/14 08:21:17;;;;;;;6.90;1.80;;;12.20;53.50;;;;;;5032473;28;20021;-72
2021/10/14 08:23:43;;;;;;;3.55;1.42;;;12.20;53.10;;;;;;5033804;28;20025;-69
2021/10/14 08:26:09;;;;;;;3.90;1.60;;;12.30;53.30;;;;;;5032834;28;20045;-72
2021/10/14 08:28:35;;;;;;;2.35;0.95;;;12.40;53.20;;;;;;5032922;28;20030;-70
2021/10/14 08:31:01;;;;;;;4.20;1.45;;;12.50;52.70;;;;;;5032112;28;20029;-70
2021/10/14 08:33:26;;;;;;;4.45;1.48;;;12.50;52.00;;;;;;5032675;28;20478;-70
2021/10/14 08:35:52;;;;;;;2.03;1.00;;;12.60;51.80;;;;;;5032880;28;20025;-70
2021/10/14 08:38:18;;;;;;;1.52;0.93;;;12.60;51.40;;;;;;5032714;28;20037;-70
2021/10/14 08:40:43;;;;;;;3.15;1.10;;;12.70;51.00;;;;;;5032899;28;20439;-70
2021/10/14 08:43:13;;;;;;;1.98;1.08;;;12.70;52.40;;;;;;5033204;28;20057;-70
2021/10/14 08:45:45;;;;;;;3.22;0.90;;;12.80;52.10;;;;;;5033601;28;20378;-70
2021/10/14 08:48:11;;;;;;;5.13;0.88;;;12.90;51.70;;;;;;5033500;28;20022;-69
2021/10/14 08:50:41;;;;;;;1.70;0.90;;;13.00;52.00;;;;;;5032149;28;20496;-70
2021/10/14 08:53:07;;;;;;;3.47;1.10;;;13.10;51.60;;;;;;5033167;28;20040;-70
2021/10/14 08:55:35;;;;;;;1.42;1.00;;;13.20;50.80;;;;;;5033412;28;20029;-68
2021/10/14 08:58:02;;;;;;;2.47;1.15;;;13.20;51.00;;;;;;5033101;28;20040;-70
2021/10/14 09:00:27;;;;;;;3.00;1.27;;;13.30;51.10;;;;;;5032669;28;20057;-69
2021/10/14 09:02:53;;;;;;;2.60;1.25;;;13.40;50.80;;;;;;5032692;28;20432;-68
2021/10/14 09:05:19;;;;;;;2.85;1.23;;;13.40;50.30;;;;;;5033059;28;20056;-69
2021/10/14 09:07:49;;;;;;;2.70;1.25;;;13.50;50.10;;;;;;5032994;28;20029;-67
2021/10/14 09:10:15;;;;;;;1.75;1.08;;;13.60;49.80;;;;;;5033180;28;20022;-69
2021/10/14 09:12:44;;;;;;;2.22;0.90;;;13.70;50.00;;;;;;5032937;28;20539;-70
2021/10/14 09:15:17;;;;;;;2.65;1.00;;;13.80;49.80;;;;;;5033184;28;20092;-70
2021/10/14 09:17:43;;;;;;;1.92;0.82;;;13.80;48.80;;;;;;5032347;28;20544;-68
2021/10/14 09:20:24;;;;;;;1.52;1.05;;;13.90;47.90;;;;;;5032302;28;20101;-70
2021/10/14 09:23:13;;;;;;;1.75;1.02;;;14.00;48.00;;;;;;5032722;28;20060;-68
2021/10/14 09:25:44;;;;;;;5.85;0.90;;;14.10;48.50;;;;;;5032470;28;20026;-70
2021/10/14 09:28:15;;;;;;;1.73;1.17;;;14.10;48.50;;;;;;5032861;28;20091;-70
2021/10/14 09:30:49;;;;;;;3.83;1.00;;;14.20;48.20;;;;;;5031332;28;20033;-69
2021/10/14 09:33:36;;;;;;;2.35;1.05;;;14.30;46.80;;;;;;5031851;28;20272;-70
2021/10/14 09:36:22;;;;;;;2.88;1.02;;;14.30;46.30;;;;;;5031412;28;20025;-70
2021/10/14 09:38:49;;;;;;;3.55;1.02;;;14.30;46.00;;;;;;5032717;28;20037;-70
2021/10/14 09:41:17;;;;;;;3.28;1.10;;;14.30;46.00;;;;;;5032052;28;20040;-69
2021/10/14 09:43:46;;;;;;;2.47;1.20;;;14.40;45.90;;;;;;5031641;28;20456;-67
2021/10/14 09:46:31;;;;;;;2.67;1.08;;;14.40;45.90;;;;;;5032652;28;20017;-68
2021/10/14 09:48:57;;;;;;;2.08;0.82;;;14.40;45.80;;;;;;5030543;28;20029;-70
2021/10/14 09:51:23;;;;;;;1.50;1.00;;;14.50;45.90;;;;;;5030649;28;20378;-71
2021/10/14 09:53:48;;;;;;;1.77;1.10;;;14.60;45.20;;;;;;5030519;28;20134;-75
2021/10/14 09:56:15;;;;;;;1.10;0.80;;;14.60;45.30;;;;;;5032039;28;20129;-74
2021/10/14 09:58:41;;;;;;;1.58;1.00;;;14.70;44.10;;;;;;5032640;28;20088;-74
2021/10/14 10:01:07;;;;;;;1.63;1.10;;;14.80;44.70;;;;;;5032317;28;20049;-75
2021/10/14 10:03:33;;;;;;;2.08;0.90;;;14.80;44.50;;;;;;5032434;28;20108;-71
2021/10/14 10:06:04;;;;;;;1.88;1.00;;;14.90;44.50;;;;;;5032330;28;20060;-70
2021/10/14 10:08:35;;;;;;;2.78;0.85;;;14.90;43.50;;;;;;5032115;28;20033;-71
2021/10/14 10:11:04;;;;;;;2.38;1.08;;;15.00;42.50;;;;;;5032408;28;20029;-70
2021/10/14 10:13:33;;;;;;;1.30;0.80;;;15.00;42.90;;;;;;5036143;28;20044;-70
2021/10/14 10:16:19;;;;;;;2.88;1.00;;;15.00;42.80;;;;;;5036277;28;20386;-70
2021/10/14 10:18:49;;;;;;;1.05;0.75;;;15.10;43.40;;;;;;5035996;28;20096;-71
2021/10/14 10:21:30;;;;;;;1.38;1.10;;;15.20;43.40;;;;;;5036136;28;20065;-71
2021/10/14 10:24:00;;;;;;;3.95;0.75;;;15.20;43.30;;;;;;5032733;28;20033;-71
2021/10/14 10:26:35;;;;;;;2.17;1.00;;;15.30;43.20;;;;;;5033153;28;20040;-71
2021/10/14 10:29:13;;;;;;;2.80;1.13;;;15.30;43.30;;;;;;5034319;28;20033;-70
2021/10/14 10:31:56;;;;;;;2.00;0.80;;;15.40;43.70;;;;;;5035643;28;20037;-72
2021/10/14 10:34:43;;;;;;;1.73;0.90;;;15.40;43.10;;;;;;5035831;28;20474;-73
2021/10/14 10:37:17;;;;;;;0.85;0.63;;;15.50;42.60;;;;;;5033907;28;20037;-70
2021/10/14 10:39:51;;;;;;;3.53;0.80;;;15.50;43.10;;;;;;5032150;28;20511;-72
2021/10/14 10:42:28;;;;;;;0.98;0.70;;;15.50;42.80;;;;;;5032250;28;20064;-71
2021/10/14 10:44:54;;;;;;;1.83;0.90;;;15.60;42.40;;;;;;5035319;28;20048;-71
2021/10/14 10:47:39;;;;;;;1.00;0.80;;;15.70;43.00;;;;;;5034394;28;20561;-70
2021/10/14 10:50:07;;;;;;;1.92;0.75;;;15.80;43.10;;;;;;5034839;28;20317;-70
2021/10/14 10:52:37;;;;;;;3.47;0.73;;;15.90;42.90;;;;;;5034402;28;20033;-72
2021/10/14 10:55:13;;;;;;;2.47;0.80;;;16.00;42.40;;;;;;5033696;28;20030;-72
2021/10/14 10:57:50;;;;;;;4.03;1.17;;;16.00;42.00;;;;;;5034053;28;20025;-71
2021/10/14 11:00:18;;;;;;;6.15;0.80;;;16.10;42.00;;;;;;5033335;28;20054;-71
2021/10/14 11:02:44;;;;;;;4.63;0.90;;;16.20;41.30;;;;;;5034430;28;20072;-71
2021/10/14 11:05:15;;;;;;;1.60;0.93;;;16.20;42.10;;;;;;5035015;28;20029;-70
2021/10/14 11:07:41;;;;;;;2.67;0.80;;;16.30;42.20;;;;;;5033913;28;20033;-72
2021/10/14 11:10:07;;;;;;;2.60;0.60;;;16.30;40.60;;;;;;5033901;28;20029;-71
2021/10/14 11:12:33;;;;;;;1.27;0.70;;;16.30;41.10;;;;;;5033877;28;20025;-71
2021/10/14 11:14:58;;;;;;;1.73;0.85;;;16.40;41.90;;;;;;5033424;28;20044;-71
2021/10/14 11:17:26;;;;;;;2.53;0.85;;;16.40;41.70;;;;;;5034262;28;20041;-71
2021/10/14 11:20:06;;;;;;;4.20;0.80;;;16.50;41.00;;;;;;5033727;28;20038;-71
2021/10/14 11:22:32;;;;;;;2.45;0.93;;;16.50;40.60;;;;;;5033559;28;20026;-71
2021/10/14 11:25:00;;;;;;;1.23;0.80;;;16.60;41.30;;;;;;5033132;28;20355;-71
2021/10/14 11:27:26;;;;;;;1.15;0.70;;;16.70;40.50;;;;;;5033479;28;20036;-72
2021/10/14 11:29:53;;;;;;;1.35;0.50;;;16.70;38.40;;;;;;5033819;28;20040;-71
2021/10/14 11:32:29;;;;;;;2.28;0.60;;;16.70;39.00;;;;;;5033704;28;20030;-72
2021/10/14 11:34:55;;;;;;;1.25;0.65;;;16.70;40.10;;;;;;5034056;28;20498;-68
2021/10/14 11:37:21;;;;;;;1.00;0.55;;;16.80;40.60;;;;;;5032998;28;20052;-73
2021/10/14 11:39:48;;;;;;;1.50;0.80;;;16.80;38.40;;;;;;5032997;28;20056;-71
2021/10/14 11:42:16;;;;;;;3.35;0.73;;;16.90;39.60;;;;;;5033515;28;20040;-71
2021/10/14 11:44:44;;;;;;;1.98;0.80;;;16.90;39.10;;;;;;5033922;28;20466;-71
2021/10/14 11:47:17;;;;;;;1.02;0.70;;;17.00;38.00;;;;;;5034877;28;20032;-71
2021/10/14 11:49:43;;;;;;;1.77;0.70;;;17.00;39.20;;;;;;5033021;28;20473;-71
2021/10/14 11:52:11;;;;;;;1.90;0.80;;;17.00;39.70;;;;;;5034028;28;20052;-72
2021/10/14 11:54:38;;;;;;;1.20;0.50;;;17.10;38.00;;;;;;5034120;28;20029;-71
2021/10/14 11:57:06;;;;;;;0.80;0.60;;;17.10;38.50;;;;;;5033219;28;20137;-71
2021/10/14 11:59:33;;;;;;;10.30;0.90;;;17.10;39.30;;;;;;5034546;28;20446;-71
2021/10/14 12:02:08;;;;;;;1.00;0.70;;;17.20;40.10;;;;;;5032984;28;20046;-72
2021/10/14 12:04:40;;;;;;;2.97;1.25;;;17.30;40.30;;;;;;5034297;28;20381;-71
2021/10/14 12:07:06;;;;;;;2.60;0.82;;;17.30;39.40;;;;;;5033505;28;20091;-72
2021/10/14 12:09:33;;;;;;;1.42;0.70;;;17.40;38.70;;;;;;5034124;28;20075;-71
2021/10/14 12:12:01;;;;;;;1.35;0.80;;;17.50;42.20;;;;;;5033512;28;20072;-72
2021/10/14 12:14:28;;;;;;;2.67;0.85;;;17.40;38.00;;;;;;5033867;28;20033;-71
2021/10/14 12:17:18;;;;;;;1.45;0.85;;;17.40;38.20;;;;;;5032536;28;20040;-72
2021/10/14 12:19:43;;;;;;;0.95;0.63;;;17.40;37.20;;;;;;5031231;28;20509;-72
2021/10/14 12:22:14;;;;;;;1.92;0.70;;;17.40;38.60;;;;;;5031164;28;20029;-73
2021/10/14 12:24:52;;;;;;;1.40;0.70;;;17.50;37.50;;;;;;5033445;28;20042;-71
2021/10/14 12:27:17;;;;;;;1.33;0.70;;;17.50;37.60;;;;;;5033691;28;20026;-70
2021/10/14 12:29:47;;;;;;;0.80;0.57;;;17.60;38.00;;;;;;5033830;28;20083;-71
2021/10/14 12:32:17;;;;;;;2.78;0.75;;;17.70;40.30;;;;;;5033630;28;20033;-72
2021/10/14 12:34:45;;;;;;;1.45;0.77;;;17.60;36.70;;;;;;5033744;28;20052;-71
2021/10/14 12:37:13;;;;;;;1.42;0.73;;;17.50;37.80;;;;;;5033734;28;20029;-70
2021/10/14 12:39:39;;;;;;;0.77;0.60;;;17.50;38.10;;;;;;5033280;28;20040;-69
2021/10/14 12:42:07;;;;;;;1.40;0.70;;;17.50;38.30;;;;;;5033336;28;20167;-71
2021/10/14 12:44:42;;;;;;;5.22;0.68;;;17.60;38.30;;;;;;5032397;28;20029;-71
2021/10/14 12:47:49;;;;;;;1.38;0.80;;;17.60;37.80;;;;;;5030799;28;20394;-71